OPKC/KHI METAR and TAF weather

Enter ICAO airport designator
Station Type Date Time Source
OPKC METAR 2022/01/26 14:00 UTC NOAA

OPKC 261400Z 14003KT 6000 NSC 20/06 Q1016


Station Type Date Time Source
OPKC Decoded METAR 2022/01/26 14:00 UTC NOAA

Karachi Airport, Pakistan (OPKC) 24-54N 067-08E 22M
Jan 26, 2022 - 09:00 AM EST / 2022.01.26 1400 UTC
Wind: from the SE (140 degrees) at 3 MPH (3 KT):0
Visibility: 3 mile(s):0
Temperature: 68 F (20 C)
Dew Point: 42 F (6 C)
Relative Humidity: 39%
Pressure (altimeter): 30.00 in. Hg (1016 hPa)
ob: OPKC 261400Z 14003KT 6000 NSC 20/06 Q1016
cycle: 14

Station Type Date Time Source
OPKC TAF 2022/01/26 12:57 UTC NOAA

TAF OPKC 260930Z 2612/2718 09010KT 6000 NSC
BECMG 2616/2618 31008KT 4000 FU NSC
TEMPO 2701/2705 06005KT 3000 FU NSC
BECMG 2709/2711 25012KT 6000 NSC

Example: see airport list